createdAt,value
2023-03-25T00:00:39.917Z,78.46
2023-03-25T00:06:08.136Z,78.48
2023-03-25T00:11:32.809Z,78.34
2023-03-25T00:16:57.179Z,78.14
2023-03-25T00:22:21.995Z,78.14
2023-03-25T00:27:48.377Z,78.25
2023-03-25T00:33:13.687Z,78.02
2023-03-25T00:38:39.746Z,78.13
2023-03-25T00:44:05.024Z,78.10
2023-03-25T00:49:29.983Z,78.05
2023-03-25T00:54:54.192Z,78.45
2023-03-25T01:00:19.120Z,78.84
2023-03-25T01:05:43.583Z,79.01
2023-03-25T01:11:22.842Z,78.83
2023-03-25T01:16:48.112Z,79.10
2023-03-25T01:22:12.257Z,79.20
2023-03-25T01:27:36.662Z,79.36
2023-03-25T01:33:00.641Z,79.74
2023-03-25T01:38:24.814Z,79.93
2023-03-25T01:44:16.025Z,79.98
2023-03-25T01:49:46.266Z,80.37
2023-03-25T01:55:10.640Z,80.57
2023-03-25T02:00:34.880Z,80.86
2023-03-25T02:06:10.758Z,80.86
2023-03-25T02:11:34.699Z,80.95
2023-03-25T02:17:14.546Z,80.89
2023-03-25T02:22:50.370Z,80.92
2023-03-25T02:28:26.373Z,80.55
2023-03-25T02:33:59.719Z,80.72
2023-03-25T02:39:41.386Z,80.72
2023-03-25T02:45:17.752Z,80.75
2023-03-25T02:50:57.923Z,80.51
2023-03-25T02:56:26.298Z,80.63
2023-03-25T03:01:51.010Z,81.11
2023-03-25T03:07:24.247Z,80.92
2023-03-25T03:13:07.788Z,81.10
2023-03-25T03:18:48.935Z,81.05
2023-03-25T03:24:24.904Z,80.71
2023-03-25T03:29:52.765Z,80.67
2023-03-25T03:35:39.615Z,80.38
2023-03-25T03:41:10.052Z,80.26
2023-03-25T03:46:40.328Z,80.18
2023-03-25T03:52:14.833Z,80.27
2023-03-25T03:57:45.940Z,80.48
2023-03-25T04:03:25.262Z,80.84
2023-03-25T04:09:19.016Z,81.24
2023-03-25T04:14:44.034Z,81.33
2023-03-25T04:20:11.792Z,81.41
2023-03-25T04:25:35.955Z,81.30
2023-03-25T04:31:06.087Z,81.29
2023-03-25T04:36:38.194Z,81.07
2023-03-25T04:42:03.861Z,81.00
2023-03-25T04:47:29.332Z,80.70
2023-03-25T04:52:57.742Z,80.69
2023-03-25T04:58:22.412Z,80.49
2023-03-25T05:03:50.650Z,80.53
2023-03-25T05:09:19.399Z,80.59
2023-03-25T05:14:43.458Z,80.71
2023-03-25T05:20:12.041Z,81.11
2023-03-25T05:25:37.983Z,81.26
2023-03-25T05:31:08.628Z,81.46
2023-03-25T05:36:33.609Z,81.46
2023-03-25T05:42:03.069Z,81.01
2023-03-25T05:47:29.146Z,80.50
2023-03-25T05:52:53.221Z,79.96
2023-03-25T05:58:18.024Z,79.52
2023-03-25T06:03:43.840Z,78.52
2023-03-25T06:09:10.889Z,77.90
2023-03-25T06:14:36.850Z,76.85
2023-03-25T06:20:02.641Z,76.32
2023-03-25T06:25:28.945Z,76.36
2023-03-25T06:30:53.793Z,76.41
2023-03-25T06:36:20.567Z,76.44
2023-03-25T06:41:49.454Z,76.02
2023-03-25T06:47:24.214Z,75.60
2023-03-25T06:52:48.809Z,74.95
2023-03-25T06:58:13.676Z,74.37
2023-03-25T07:03:38.476Z,74.28
2023-03-25T07:09:02.977Z,73.92
2023-03-25T07:14:27.654Z,73.53
2023-03-25T07:19:52.168Z,73.00
2023-03-25T07:25:16.753Z,72.39
2023-03-25T07:30:41.712Z,72.37
2023-03-25T07:36:07.367Z,71.30
2023-03-25T07:41:31.408Z,71.13
2023-03-25T07:47:17.488Z,69.45
2023-03-25T07:52:42.018Z,69.25
2023-03-25T07:58:06.099Z,69.36
2023-03-25T08:03:29.974Z,68.56
2023-03-25T08:08:54.060Z,68.19
2023-03-25T08:14:18.254Z,68.33
2023-03-25T08:19:42.998Z,67.61
2023-03-25T08:25:08.391Z,68.44
2023-03-25T08:30:39.104Z,68.46
2023-03-25T08:36:03.501Z,68.71
2023-03-25T08:41:27.471Z,68.85
2023-03-25T08:46:51.440Z,68.43
2023-03-25T08:52:16.943Z,68.12
2023-03-25T08:57:42.665Z,67.35
2023-03-25T09:03:06.616Z,65.93
2023-03-25T09:08:33.191Z,65.07
2023-03-25T09:13:57.581Z,63.20
2023-03-25T09:19:21.862Z,63.88
2023-03-25T09:24:46.883Z,63.56
2023-03-25T09:30:12.325Z,63.48
2023-03-25T09:35:36.851Z,60.54
2023-03-25T09:41:15.653Z,57.41
2023-03-25T09:46:40.944Z,56.50
2023-03-25T09:52:06.789Z,55.28
2023-03-25T09:57:44.792Z,55.41
2023-03-25T10:03:25.008Z,54.83
2023-03-25T10:09:07.800Z,55.35
2023-03-25T10:15:01.031Z,55.84
2023-03-25T10:20:48.101Z,56.92
2023-03-25T10:26:44.003Z,58.02
2023-03-25T10:32:22.454Z,56.33
2023-03-25T10:37:49.725Z,58.48
2023-03-25T10:43:20.357Z,64.76
2023-03-25T10:48:46.721Z,67.99
2023-03-25T10:54:16.134Z,68.97
2023-03-25T10:59:54.116Z,71.81
2023-03-25T11:05:23.210Z,75.01
2023-03-25T11:10:57.479Z,75.91
2023-03-25T11:16:22.119Z,75.19
2023-03-25T11:21:49.261Z,77.00
2023-03-25T11:27:22.124Z,78.90
2023-03-25T11:32:57.717Z,81.18
2023-03-25T11:38:24.721Z,81.91
2023-03-25T11:43:50.385Z,82.12
2023-03-25T11:49:21.971Z,81.53
2023-03-25T11:54:46.851Z,81.07
2023-03-25T12:00:40.017Z,80.23
2023-03-25T12:06:12.492Z,78.51
2023-03-25T12:11:42.687Z,79.27
2023-03-25T12:17:46.565Z,78.11
2023-03-25T12:23:16.587Z,76.10
2023-03-25T12:28:40.498Z,75.81
2023-03-25T12:34:07.698Z,75.41
2023-03-25T12:39:44.013Z,72.16
2023-03-25T12:45:34.344Z,70.86
2023-03-25T12:51:40.404Z,71.12
2023-03-25T12:57:24.851Z,71.17
2023-03-25T13:03:23.979Z,70.06
2023-03-25T13:08:59.383Z,68.97
2023-03-25T13:14:42.041Z,65.46
2023-03-25T13:20:11.314Z,68.34
2023-03-25T13:25:48.205Z,70.21
2023-03-25T13:31:19.840Z,71.27
2023-03-25T13:36:57.183Z,71.83
2023-03-25T13:42:48.727Z,71.14
2023-03-25T13:48:28.963Z,69.91
2023-03-25T13:54:07.725Z,68.13
2023-03-25T13:59:35.586Z,68.12
2023-03-25T14:05:32.662Z,68.63
2023-03-25T14:11:05.799Z,68.58
2023-03-25T14:16:36.907Z,68.13
2023-03-25T14:22:14.945Z,66.65
2023-03-25T14:27:39.622Z,62.09
2023-03-25T14:33:05.265Z,61.37
2023-03-25T14:39:10.557Z,59.75
2023-03-25T14:45:51.452Z,58.94
2023-03-25T14:51:27.804Z,59.01
2023-03-25T14:57:18.820Z,58.65
2023-03-25T15:02:51.203Z,58.52
2023-03-25T15:08:22.478Z,58.16
2023-03-25T15:13:53.738Z,58.93
2023-03-25T15:19:19.444Z,57.88
2023-03-25T15:24:51.285Z,58.19
2023-03-25T15:30:52.786Z,58.13
2023-03-25T15:36:35.509Z,58.43
2023-03-25T15:42:11.945Z,58.84
2023-03-25T15:47:54.397Z,59.67
2023-03-25T15:53:41.913Z,59.33
2023-03-25T15:59:24.175Z,59.25
2023-03-25T16:04:50.896Z,57.45
2023-03-25T16:10:29.793Z,57.33
2023-03-25T16:15:59.162Z,57.40
2023-03-25T16:21:24.003Z,56.44
2023-03-25T16:26:50.434Z,56.48
2023-03-25T16:32:22.967Z,57.15
2023-03-25T16:37:47.584Z,57.96
2023-03-25T16:43:24.575Z,58.42
2023-03-25T16:49:00.657Z,59.42
2023-03-25T16:54:37.025Z,61.89
2023-03-25T17:00:18.883Z,63.69
2023-03-25T17:06:19.979Z,66.03
2023-03-25T17:11:46.450Z,67.84
2023-03-25T17:17:37.414Z,70.11
2023-03-25T17:23:02.136Z,71.93
2023-03-25T17:28:33.493Z,72.66
2023-03-25T17:34:20.400Z,72.91
2023-03-25T17:39:49.204Z,73.41
2023-03-25T17:45:17.885Z,73.34
2023-03-25T17:50:52.420Z,73.45
2023-03-25T17:56:24.604Z,73.53
2023-03-25T18:01:50.399Z,73.06
2023-03-25T18:07:14.594Z,72.74
2023-03-25T18:12:39.455Z,72.84
2023-03-25T18:18:07.244Z,72.51
2023-03-25T18:23:32.549Z,72.58
2023-03-25T18:28:57.355Z,72.63
2023-03-25T18:34:23.967Z,72.49
2023-03-25T18:39:48.034Z,72.30
2023-03-25T18:45:12.821Z,72.35
2023-03-25T18:50:39.457Z,72.47
2023-03-25T18:56:05.399Z,72.84
2023-03-25T19:01:30.498Z,73.27
2023-03-25T19:06:55.034Z,73.85
2023-03-25T19:12:19.469Z,74.08
2023-03-25T19:17:45.032Z,74.55
2023-03-25T19:23:12.638Z,74.84
2023-03-25T19:28:39.583Z,75.33
2023-03-25T19:34:05.300Z,75.64
2023-03-25T19:39:30.151Z,75.77
2023-03-25T19:44:55.402Z,75.55
2023-03-25T19:50:22.309Z,75.42
2023-03-25T19:55:46.826Z,75.38
2023-03-25T20:01:13.474Z,75.56
2023-03-25T20:06:39.237Z,75.24
2023-03-25T20:12:03.824Z,74.87
2023-03-25T20:17:28.521Z,74.53
2023-03-25T20:22:53.882Z,74.42
2023-03-25T20:28:18.849Z,74.10
2023-03-25T20:33:45.888Z,73.41
2023-03-25T20:39:11.728Z,73.26
2023-03-25T20:44:37.638Z,72.29
2023-03-25T20:50:01.515Z,71.70
2023-03-25T20:55:25.773Z,72.03
2023-03-25T21:00:50.477Z,72.12
2023-03-25T21:06:24.417Z,72.15
2023-03-25T21:11:51.962Z,72.15
2023-03-25T21:17:18.129Z,71.99
2023-03-25T21:22:44.583Z,71.66
2023-03-25T21:28:09.575Z,71.81
2023-03-25T21:33:37.704Z,71.82
2023-03-25T21:39:04.857Z,71.60
2023-03-25T21:44:29.479Z,71.54
2023-03-25T21:49:53.534Z,71.47
2023-03-25T21:55:18.107Z,71.14
2023-03-25T22:00:42.672Z,71.10
2023-03-25T22:06:09.560Z,71.10
2023-03-25T22:11:38.116Z,70.88
2023-03-25T22:17:02.904Z,71.01
2023-03-25T22:22:27.863Z,71.04
2023-03-25T22:27:51.885Z,71.26
2023-03-25T22:33:17.365Z,71.68
2023-03-25T22:38:44.497Z,72.19
2023-03-25T22:44:09.645Z,72.38
2023-03-25T22:49:34.002Z,72.92
2023-03-25T22:54:59.006Z,73.15
2023-03-25T23:00:26.418Z,73.35
2023-03-25T23:06:17.083Z,73.65
2023-03-25T23:11:41.023Z,73.97
2023-03-25T23:17:05.958Z,74.05
2023-03-25T23:22:30.671Z,74.58
2023-03-25T23:27:54.597Z,75.06
2023-03-25T23:33:18.900Z,75.31
2023-03-25T23:38:44.478Z,75.22
2023-03-25T23:44:08.918Z,75.11
2023-03-25T23:49:38.649Z,75.42
2023-03-25T23:55:03.508Z,76.72
